High Level, Canada
Current Conditions -  °F | °C
As of 10:52 PM on Wednesday 22 Oct 2014 (Local Time) from CYOJ Reporting Station
Moderate Fog Moderate Fog  
Wind Chill: 33°   Ceiling: 400
Heat Index: 37°   Visibility: 0.37mi
Dew Point: 37°   Wind: 6mph
Humidity: 100%   Direction: 340°NNW
Pressure: 29.49"   Gusts: NA
Location:  58.52°N, 117.13°W
Report Text: CYOJ 230452Z AUTO 34005KT 3/8SM FG BKN004 BKN010 BKN014 OVC070 03/03 A2949 RMK SLP006
Loading
Personal Weather Stations






























Interactive Weather Map
Tropical Storm Tracking
New forecast layout! Learn more

10-Day Weather Forecast

Advertisements
Track Severe Weather on mobile